Swan Lake, Canada
Current Conditions -  °F | °C
As of 4:15 PM on Wednesday 28 Jan 2015 (Local Time) from KD55 Reporting Station
Haze Haze  
Wind Chill: 12°   Ceiling: 200
Heat Index: 27°   Visibility: 2.5mi
Dew Point: 27°   Wind: 22mph
Humidity: 100%   Direction: 340°NNW
Pressure: 29.86"   Gusts: 28mph
Location:  49.4°N, 98.8°W
Report Text: KD55 282215Z AUTO 34019G24KT 2 1/2SM BR OVC002 M03/M03 A2986 RMK AO2
Loading
Personal Weather Stations






























Interactive Weather Map New forecast layout! Learn more

10-Day Weather Forecast

Advertisements
Track Severe Weather on mobile